createdAt,value
2023-05-10T00:00:24.787Z,11.86
2023-05-10T00:03:12.406Z,11.83
2023-05-10T00:05:43.046Z,11.82
2023-05-10T00:08:14.119Z,11.80
2023-05-10T00:10:44.692Z,11.80
2023-05-10T00:13:15.652Z,11.79
2023-05-10T00:15:46.208Z,11.77
2023-05-10T00:18:16.786Z,11.74
2023-05-10T00:20:47.558Z,11.73
2023-05-10T00:23:18.232Z,11.71
2023-05-10T00:25:48.776Z,11.69
2023-05-10T00:28:19.348Z,11.67
2023-05-10T00:30:49.956Z,11.65
2023-05-10T00:33:20.929Z,11.63
2023-05-10T00:35:51.938Z,11.63
2023-05-10T00:38:22.497Z,11.62
2023-05-10T00:40:53.106Z,11.61
2023-05-10T00:43:29.376Z,11.59
2023-05-10T00:45:59.960Z,11.58
2023-05-10T00:48:30.753Z,11.57
2023-05-10T00:51:02.970Z,11.57
2023-05-10T00:53:34.695Z,11.57
2023-05-10T00:56:06.562Z,11.56
2023-05-10T00:58:37.428Z,11.54
2023-05-10T01:01:08.399Z,11.51
2023-05-10T01:03:39.525Z,11.49
2023-05-10T01:06:11.018Z,11.47
2023-05-10T01:08:42.029Z,11.45
2023-05-10T01:11:12.612Z,11.43
2023-05-10T01:13:44.275Z,11.42
2023-05-10T01:16:15.369Z,11.41
2023-05-10T01:18:46.637Z,11.40
2023-05-10T01:21:24.611Z,11.40
2023-05-10T01:24:11.832Z,11.39
2023-05-10T01:26:58.992Z,11.38
2023-05-10T01:29:51.511Z,11.36
2023-05-10T01:32:32.498Z,11.33
2023-05-10T01:35:06.293Z,11.31
2023-05-10T01:37:43.202Z,11.31
2023-05-10T01:40:20.814Z,11.29
2023-05-10T01:42:53.581Z,11.30
2023-05-10T01:45:29.671Z,11.29
2023-05-10T01:48:06.551Z,11.29
2023-05-10T01:50:38.569Z,11.28
2023-05-10T01:53:11.790Z,11.27
2023-05-10T01:55:45.229Z,11.24
2023-05-10T01:58:18.264Z,11.21
2023-05-10T02:00:50.868Z,11.17
2023-05-10T02:03:24.478Z,11.14
2023-05-10T02:05:56.762Z,11.15
2023-05-10T02:08:28.490Z,11.14
2023-05-10T02:10:59.829Z,11.11
2023-05-10T02:13:33.823Z,11.08
2023-05-10T02:16:05.812Z,11.06
2023-05-10T02:18:38.161Z,11.04
2023-05-10T02:21:10.331Z,11.00
2023-05-10T02:23:42.768Z,11.01
2023-05-10T02:26:14.591Z,11.00
2023-05-10T02:28:46.894Z,10.97
2023-05-10T02:31:17.940Z,10.96
2023-05-10T02:33:49.722Z,10.95
2023-05-10T02:36:23.414Z,10.93
2023-05-10T02:38:54.892Z,10.91
2023-05-10T02:41:27.948Z,10.89
2023-05-10T02:44:01.890Z,10.88
2023-05-10T02:46:32.589Z,10.87
2023-05-10T02:49:03.830Z,10.86
2023-05-10T02:51:37.280Z,10.85
2023-05-10T02:54:11.749Z,10.82
2023-05-10T02:56:44.618Z,10.78
2023-05-10T02:59:15.267Z,10.76
2023-05-10T03:01:45.926Z,10.75
2023-05-10T03:04:17.228Z,10.73
2023-05-10T03:06:47.928Z,10.70
2023-05-10T03:09:18.684Z,10.69
2023-05-10T03:11:57.266Z,10.69
2023-05-10T03:14:36.364Z,10.68
2023-05-10T03:17:12.785Z,10.67
2023-05-10T03:19:46.143Z,10.66
2023-05-10T03:22:23.538Z,10.65
2023-05-10T03:24:56.003Z,10.65
2023-05-10T03:27:28.353Z,10.65
2023-05-10T03:30:00.077Z,10.64
2023-05-10T03:32:31.390Z,10.63
2023-05-10T03:35:03.399Z,10.60
2023-05-10T03:37:34.302Z,10.59
2023-05-10T03:40:05.234Z,10.58
2023-05-10T03:42:36.961Z,10.58
2023-05-10T03:45:08.738Z,10.58
2023-05-10T03:47:39.468Z,10.59
2023-05-10T03:50:12.040Z,10.61
2023-05-10T03:52:42.617Z,10.60
2023-05-10T03:55:13.272Z,10.61
2023-05-10T03:57:44.088Z,10.61
2023-05-10T04:00:15.712Z,10.63
2023-05-10T04:02:46.534Z,10.63
2023-05-10T04:05:22.161Z,10.62
2023-05-10T04:07:52.712Z,10.61
2023-05-10T04:10:23.324Z,10.61
2023-05-10T04:12:53.873Z,10.61
2023-05-10T04:15:24.658Z,10.63
2023-05-10T04:17:55.205Z,10.63
2023-05-10T04:20:25.713Z,10.61
2023-05-10T04:22:56.276Z,10.61
2023-05-10T04:25:26.818Z,10.62
2023-05-10T04:27:57.368Z,10.64
2023-05-10T04:30:29.598Z,10.66
2023-05-10T04:33:01.127Z,10.67
2023-05-10T04:35:31.783Z,10.68
2023-05-10T04:38:02.324Z,10.70
2023-05-10T04:40:32.874Z,10.71
2023-05-10T04:43:03.427Z,10.72
2023-05-10T04:45:33.938Z,10.75
2023-05-10T04:48:04.598Z,10.78
2023-05-10T04:50:35.234Z,10.81
2023-05-10T04:53:05.789Z,10.84
2023-05-10T04:55:36.298Z,10.87
2023-05-10T04:58:06.879Z,10.91
2023-05-10T05:00:37.385Z,10.98
2023-05-10T05:03:08.376Z,11.04
2023-05-10T05:05:39.013Z,11.09
2023-05-10T05:08:10.029Z,11.17
2023-05-10T05:10:40.608Z,11.26
2023-05-10T05:13:11.205Z,11.36
2023-05-10T05:15:41.712Z,11.46
2023-05-10T05:18:16.816Z,11.55
2023-05-10T05:20:49.097Z,11.65
2023-05-10T05:23:21.771Z,11.77
2023-05-10T05:25:53.263Z,11.87
2023-05-10T05:28:23.887Z,11.99
2023-05-10T05:30:54.392Z,12.11
2023-05-10T05:33:24.964Z,12.21
2023-05-10T05:35:55.614Z,12.33
2023-05-10T05:38:26.264Z,12.43
2023-05-10T05:40:56.983Z,12.53
2023-05-10T05:43:27.615Z,12.61
2023-05-10T05:45:59.172Z,12.70
2023-05-10T05:48:31.459Z,12.79
2023-05-10T05:51:02.065Z,12.87
2023-05-10T05:53:32.568Z,12.97
2023-05-10T05:56:03.089Z,13.10
2023-05-10T05:58:33.628Z,13.21
2023-05-10T06:01:04.423Z,13.26
2023-05-10T06:03:35.306Z,13.34
2023-05-10T06:06:06.273Z,13.42
2023-05-10T06:08:36.850Z,13.50
2023-05-10T06:11:07.441Z,13.57
2023-05-10T06:13:38.047Z,13.63
2023-05-10T06:16:10.358Z,13.67
2023-05-10T06:18:40.859Z,13.76
2023-05-10T06:21:11.527Z,13.86
2023-05-10T06:23:42.067Z,13.92
2023-05-10T06:26:12.686Z,14.00
2023-05-10T06:28:43.287Z,14.10
2023-05-10T06:31:13.902Z,14.17
2023-05-10T06:33:44.526Z,14.25
2023-05-10T06:36:15.585Z,14.32
2023-05-10T06:38:46.159Z,14.41
2023-05-10T06:41:16.813Z,14.52
2023-05-10T06:43:47.390Z,14.61
2023-05-10T06:46:17.886Z,14.74
2023-05-10T06:48:48.458Z,14.87
2023-05-10T06:51:19.050Z,14.98
2023-05-10T06:53:49.712Z,15.08
2023-05-10T06:56:22.583Z,15.14
2023-05-10T06:58:53.292Z,15.23
2023-05-10T07:01:23.961Z,15.28
2023-05-10T07:03:54.624Z,15.32
2023-05-10T07:06:33.062Z,15.43
2023-05-10T07:09:04.625Z,15.52
2023-05-10T07:11:35.142Z,15.65
2023-05-10T07:14:05.636Z,15.75
2023-05-10T07:16:36.161Z,15.86
2023-05-10T07:19:07.568Z,15.98
2023-05-10T07:21:38.571Z,16.08
2023-05-10T07:24:09.335Z,16.08
2023-05-10T07:26:39.954Z,16.17
2023-05-10T07:29:11.106Z,16.26
2023-05-10T07:31:42.995Z,16.35
2023-05-10T07:34:13.527Z,16.48
2023-05-10T07:36:44.074Z,16.58
2023-05-10T07:39:18.611Z,16.67
2023-05-10T07:41:51.869Z,16.64
2023-05-10T07:44:22.498Z,16.67
2023-05-10T07:46:53.185Z,16.67
2023-05-10T07:49:25.193Z,16.74
2023-05-10T07:51:55.697Z,16.86
2023-05-10T07:54:26.279Z,16.90
2023-05-10T07:56:56.840Z,16.92
2023-05-10T07:59:27.410Z,16.94
2023-05-10T08:01:58.364Z,16.96
2023-05-10T08:04:29.161Z,16.99
2023-05-10T08:06:59.689Z,17.03
2023-05-10T08:09:30.172Z,17.11
2023-05-10T08:12:01.066Z,17.15
2023-05-10T08:14:31.824Z,17.15
2023-05-10T08:17:02.363Z,17.20
2023-05-10T08:19:33.284Z,17.28
2023-05-10T08:22:03.877Z,17.37
2023-05-10T08:24:35.903Z,17.40
2023-05-10T08:27:06.678Z,17.43
2023-05-10T08:29:48.993Z,17.44
2023-05-10T08:32:20.810Z,17.45
2023-05-10T08:34:51.375Z,17.48
2023-05-10T08:37:21.949Z,17.53
2023-05-10T08:39:52.547Z,17.57
2023-05-10T08:42:24.902Z,17.64
2023-05-10T08:44:56.180Z,17.74
2023-05-10T08:47:27.508Z,17.82
2023-05-10T08:50:00.672Z,17.88
2023-05-10T08:52:32.247Z,17.97
2023-05-10T08:55:03.029Z,18.03
2023-05-10T08:57:33.477Z,18.01
2023-05-10T09:00:04.870Z,18.03
2023-05-10T09:02:35.839Z,18.13
2023-05-10T09:05:08.058Z,18.21
2023-05-10T09:07:38.754Z,18.29
2023-05-10T09:10:11.429Z,18.36
2023-05-10T09:12:41.989Z,18.43
2023-05-10T09:15:17.223Z,18.39
2023-05-10T09:17:48.482Z,18.29
2023-05-10T09:20:19.650Z,18.26
2023-05-10T09:22:50.771Z,18.24
2023-05-10T09:25:21.469Z,18.28
2023-05-10T09:27:52.312Z,18.34
2023-05-10T09:30:27.847Z,18.40
2023-05-10T09:32:59.263Z,18.39
2023-05-10T09:35:30.384Z,18.38
2023-05-10T09:38:01.783Z,18.44
2023-05-10T09:40:33.079Z,18.49
2023-05-10T09:43:04.681Z,18.60
2023-05-10T09:45:38.659Z,18.70
2023-05-10T09:48:10.349Z,18.80
2023-05-10T09:50:41.435Z,18.85
2023-05-10T09:53:16.872Z,18.93
2023-05-10T09:55:48.056Z,19.00
2023-05-10T09:58:18.593Z,18.98
2023-05-10T10:00:52.633Z,18.96
2023-05-10T10:03:23.763Z,18.98
2023-05-10T10:05:57.030Z,19.02
2023-05-10T10:08:29.079Z,19.06
2023-05-10T10:10:59.696Z,19.13
2023-05-10T10:13:30.765Z,19.29
2023-05-10T10:16:01.362Z,19.39
2023-05-10T10:18:32.862Z,19.37
2023-05-10T10:21:03.715Z,19.39
2023-05-10T10:23:34.269Z,19.42
2023-05-10T10:26:05.674Z,19.47
2023-05-10T10:28:41.883Z,19.58
2023-05-10T10:31:20.187Z,19.74
2023-05-10T10:34:03.049Z,19.87
2023-05-10T10:36:34.992Z,19.99
2023-05-10T10:39:10.701Z,20.03
2023-05-10T10:41:44.977Z,20.10
2023-05-10T10:44:34.854Z,20.05
2023-05-10T10:47:09.593Z,20.02
2023-05-10T10:49:46.493Z,20.02
2023-05-10T10:52:18.192Z,20.11
2023-05-10T10:54:53.470Z,20.19
2023-05-10T10:57:24.100Z,20.28
2023-05-10T11:00:14.590Z,20.34
2023-05-10T11:02:50.062Z,20.42
2023-05-10T11:05:35.309Z,20.51
2023-05-10T11:08:11.460Z,20.49
2023-05-10T11:10:42.799Z,20.46
2023-05-10T11:13:13.335Z,20.56
2023-05-10T11:15:51.829Z,20.64
2023-05-10T11:18:23.063Z,20.69
2023-05-10T11:20:54.194Z,20.69
2023-05-10T11:23:24.776Z,20.67
2023-05-10T11:25:56.200Z,20.74
2023-05-10T11:28:28.149Z,20.81
2023-05-10T11:30:59.189Z,20.90
2023-05-10T11:33:29.757Z,20.97
2023-05-10T11:36:00.489Z,21.01
2023-05-10T11:38:34.991Z,21.08
2023-05-10T11:41:05.554Z,21.11
2023-05-10T11:43:37.848Z,21.13
2023-05-10T11:46:08.844Z,21.06
2023-05-10T11:48:40.823Z,20.99
2023-05-10T11:51:11.917Z,20.90
2023-05-10T11:53:42.523Z,20.81
2023-05-10T11:56:13.646Z,20.73
2023-05-10T11:58:44.544Z,20.77
2023-05-10T12:01:15.217Z,20.85
2023-05-10T12:03:46.237Z,20.93
2023-05-10T12:06:17.556Z,20.92
2023-05-10T12:08:49.210Z,20.91
2023-05-10T12:11:20.426Z,20.91
2023-05-10T12:13:51.039Z,20.91
2023-05-10T12:16:22.337Z,20.87
2023-05-10T12:18:53.356Z,20.86
2023-05-10T12:21:24.197Z,20.84
2023-05-10T12:23:55.559Z,20.83
2023-05-10T12:26:27.534Z,20.84
2023-05-10T12:29:13.482Z,20.85
2023-05-10T12:31:54.576Z,20.79
2023-05-10T12:34:28.967Z,20.67
2023-05-10T12:36:59.593Z,20.61
2023-05-10T12:39:39.746Z,20.56
2023-05-10T12:42:10.369Z,20.56
2023-05-10T12:44:41.216Z,20.62
2023-05-10T12:47:11.849Z,20.65
2023-05-10T12:49:42.434Z,20.59
2023-05-10T12:52:12.970Z,20.55
2023-05-10T12:54:43.531Z,20.53
2023-05-10T12:57:14.973Z,20.56
2023-05-10T12:59:45.587Z,20.59
2023-05-10T13:02:16.452Z,20.60
2023-05-10T13:04:48.946Z,20.62
2023-05-10T13:07:21.519Z,20.60
2023-05-10T13:09:52.129Z,20.54
2023-05-10T13:12:22.900Z,20.51
2023-05-10T13:14:53.672Z,20.37
2023-05-10T13:17:24.591Z,20.27
2023-05-10T13:19:55.492Z,20.19
2023-05-10T13:22:39.328Z,20.13
2023-05-10T13:25:12.565Z,20.09
2023-05-10T13:27:43.191Z,20.06
2023-05-10T13:30:14.168Z,20.05
2023-05-10T13:32:45.045Z,20.01
2023-05-10T13:35:15.826Z,19.98
2023-05-10T13:37:46.523Z,19.96
2023-05-10T13:40:18.210Z,19.94
2023-05-10T13:42:49.061Z,19.91
2023-05-10T13:45:19.994Z,19.87
2023-05-10T13:47:50.854Z,19.86
2023-05-10T13:50:21.963Z,19.86
2023-05-10T13:52:52.653Z,19.87
2023-05-10T13:55:23.889Z,19.88
2023-05-10T13:57:55.159Z,19.91
2023-05-10T14:00:26.285Z,19.94
2023-05-10T14:02:57.677Z,19.95
2023-05-10T14:05:28.860Z,19.97
2023-05-10T14:07:59.866Z,19.91
2023-05-10T14:10:31.194Z,19.84
2023-05-10T14:13:02.340Z,19.81
2023-05-10T14:15:33.967Z,19.75
2023-05-10T14:18:04.836Z,19.69
2023-05-10T14:20:35.563Z,19.60
2023-05-10T14:23:06.299Z,19.52
2023-05-10T14:25:37.374Z,19.43
2023-05-10T14:28:08.158Z,19.37
2023-05-10T14:30:38.885Z,19.37
2023-05-10T14:33:10.027Z,19.37
2023-05-10T14:35:41.577Z,19.38
2023-05-10T14:38:13.633Z,19.39
2023-05-10T14:40:44.561Z,19.38
2023-05-10T14:43:15.855Z,19.36
2023-05-10T14:45:47.712Z,19.30
2023-05-10T14:48:18.640Z,19.24
2023-05-10T14:50:50.769Z,19.20
2023-05-10T14:53:21.747Z,19.15
2023-05-10T14:55:53.690Z,19.09
2023-05-10T14:58:26.156Z,19.04
2023-05-10T15:00:57.779Z,18.99
2023-05-10T15:03:29.148Z,18.95
2023-05-10T15:06:02.435Z,18.94
2023-05-10T15:08:32.983Z,18.94
2023-05-10T15:11:05.775Z,18.91
2023-05-10T15:13:36.788Z,18.87
2023-05-10T15:16:07.888Z,18.83
2023-05-10T15:18:38.828Z,18.77
2023-05-10T15:21:09.533Z,18.74
2023-05-10T15:23:40.182Z,18.71
2023-05-10T15:26:14.699Z,18.69
2023-05-10T15:28:45.481Z,18.66
2023-05-10T15:31:18.544Z,18.65
2023-05-10T15:33:49.133Z,18.64
2023-05-10T15:36:21.994Z,18.61
2023-05-10T15:38:52.750Z,18.57
2023-05-10T15:41:24.001Z,18.53
2023-05-10T15:43:55.998Z,18.48
2023-05-10T15:46:26.603Z,18.43
2023-05-10T15:48:57.376Z,18.41
2023-05-10T15:51:28.115Z,18.38
2023-05-10T15:54:07.218Z,18.37
2023-05-10T15:56:39.084Z,18.35
2023-05-10T15:59:12.491Z,18.33
2023-05-10T16:01:43.342Z,18.32
2023-05-10T16:04:16.478Z,18.30
2023-05-10T16:06:48.470Z,18.29
2023-05-10T16:09:19.192Z,18.25
2023-05-10T16:11:49.941Z,18.23
2023-05-10T16:14:22.426Z,18.20
2023-05-10T16:16:53.796Z,18.17
2023-05-10T16:19:24.847Z,18.12
2023-05-10T16:21:56.321Z,18.09
2023-05-10T16:24:27.188Z,18.04
2023-05-10T16:26:57.867Z,18.00
2023-05-10T16:29:29.856Z,17.97
2023-05-10T16:32:00.564Z,17.93
2023-05-10T16:34:31.152Z,17.88
2023-05-10T16:37:02.391Z,17.84
2023-05-10T16:39:33.502Z,17.80
2023-05-10T16:42:04.463Z,17.76
2023-05-10T16:44:36.152Z,17.71
2023-05-10T16:47:08.626Z,17.68
2023-05-10T16:49:40.251Z,17.63
2023-05-10T16:52:16.955Z,17.60
2023-05-10T16:54:47.842Z,17.57
2023-05-10T16:57:19.397Z,17.54
2023-05-10T16:59:50.270Z,17.51
2023-05-10T17:02:22.702Z,17.47
2023-05-10T17:04:56.428Z,17.44
2023-05-10T17:07:31.987Z,17.40
2023-05-10T17:10:02.704Z,17.36
2023-05-10T17:12:34.473Z,17.32
2023-05-10T17:15:06.710Z,17.29
2023-05-10T17:17:37.564Z,17.26
2023-05-10T17:20:11.791Z,17.24
2023-05-10T17:22:43.879Z,17.21
2023-05-10T17:25:21.875Z,17.18
2023-05-10T17:27:52.672Z,17.14
2023-05-10T17:30:26.561Z,17.11
2023-05-10T17:33:01.482Z,17.08
2023-05-10T17:35:36.636Z,17.04
2023-05-10T17:38:07.444Z,17.01
2023-05-10T17:40:41.331Z,16.99
2023-05-10T17:43:14.527Z,16.98
2023-05-10T17:45:52.430Z,16.97
2023-05-10T17:48:24.425Z,16.94
2023-05-10T17:50:55.226Z,16.92
2023-05-10T17:53:29.606Z,16.90
2023-05-10T17:56:02.202Z,16.87
2023-05-10T17:58:33.499Z,16.83
2023-05-10T18:01:04.572Z,16.79
2023-05-10T18:03:36.695Z,16.75
2023-05-10T18:06:08.525Z,16.72
2023-05-10T18:08:40.383Z,16.69
2023-05-10T18:11:11.261Z,16.66
2023-05-10T18:13:41.965Z,16.62
2023-05-10T18:16:13.957Z,16.58
2023-05-10T18:18:45.956Z,16.53
2023-05-10T18:21:16.888Z,16.48
2023-05-10T18:23:48.994Z,16.44
2023-05-10T18:26:20.041Z,16.39
2023-05-10T18:28:55.432Z,16.34
2023-05-10T18:31:28.929Z,16.30
2023-05-10T18:33:59.828Z,16.25
2023-05-10T18:36:31.759Z,16.22
2023-05-10T18:39:02.753Z,16.16
2023-05-10T18:41:37.749Z,16.11
2023-05-10T18:44:09.430Z,16.07
2023-05-10T18:46:40.273Z,16.03
2023-05-10T18:49:11.450Z,15.99
2023-05-10T18:51:42.672Z,15.95
2023-05-10T18:54:21.371Z,15.91
2023-05-10T18:56:52.605Z,15.85
2023-05-10T18:59:28.189Z,15.81
2023-05-10T19:01:59.281Z,15.78
2023-05-10T19:04:31.322Z,15.75
2023-05-10T19:07:03.301Z,15.71
2023-05-10T19:09:33.913Z,15.67
2023-05-10T19:12:05.717Z,15.64
2023-05-10T19:14:38.406Z,15.60
2023-05-10T19:17:09.191Z,15.56
2023-05-10T19:19:40.080Z,15.52
2023-05-10T19:22:10.943Z,15.48
2023-05-10T19:24:42.531Z,15.46
2023-05-10T19:27:15.970Z,15.42
2023-05-10T19:29:46.814Z,15.38
2023-05-10T19:32:27.494Z,15.37
2023-05-10T19:34:58.304Z,15.36
2023-05-10T19:37:28.818Z,15.32
2023-05-10T19:39:59.309Z,15.28
2023-05-10T19:42:29.933Z,15.25
2023-05-10T19:45:00.970Z,15.21
2023-05-10T19:47:31.816Z,15.18
2023-05-10T19:50:02.497Z,15.15
2023-05-10T19:52:33.302Z,15.12
2023-05-10T19:55:04.658Z,15.10
2023-05-10T19:57:35.206Z,15.06
2023-05-10T20:00:06.827Z,15.03
2023-05-10T20:02:41.773Z,15.00
2023-05-10T20:05:12.525Z,14.97
2023-05-10T20:07:43.093Z,14.93
2023-05-10T20:10:13.985Z,14.89
2023-05-10T20:12:49.757Z,14.84
2023-05-10T20:15:22.250Z,14.81
2023-05-10T20:17:53.290Z,14.79
2023-05-10T20:20:23.933Z,14.76
2023-05-10T20:22:54.610Z,14.74
2023-05-10T20:25:25.090Z,14.71
2023-05-10T20:27:55.609Z,14.69
2023-05-10T20:30:28.973Z,14.66
2023-05-10T20:32:59.472Z,14.64
2023-05-10T20:35:30.081Z,14.62
2023-05-10T20:38:02.174Z,14.60
2023-05-10T20:40:32.934Z,14.56
2023-05-10T20:43:03.596Z,14.54
2023-05-10T20:45:35.394Z,14.51
2023-05-10T20:48:07.853Z,14.49
2023-05-10T20:50:38.504Z,14.48
2023-05-10T20:53:08.997Z,14.47
2023-05-10T20:55:39.648Z,14.46
2023-05-10T20:58:10.145Z,14.43
2023-05-10T21:00:40.675Z,14.40
2023-05-10T21:03:11.277Z,14.37
2023-05-10T21:05:41.861Z,14.36
2023-05-10T21:08:12.442Z,14.34
2023-05-10T21:10:42.992Z,14.32
2023-05-10T21:13:13.454Z,14.30
2023-05-10T21:15:44.136Z,14.27
2023-05-10T21:18:14.636Z,14.23
2023-05-10T21:20:45.126Z,14.20
2023-05-10T21:23:15.595Z,14.19
2023-05-10T21:25:46.240Z,14.18
2023-05-10T21:28:16.716Z,14.15
2023-05-10T21:30:47.967Z,14.12
2023-05-10T21:33:18.468Z,14.10
2023-05-10T21:35:49.075Z,14.08
2023-05-10T21:38:19.639Z,14.06
2023-05-10T21:40:50.190Z,14.04
2023-05-10T21:43:20.773Z,14.03
2023-05-10T21:45:51.286Z,14.02
2023-05-10T21:48:21.926Z,14.01
2023-05-10T21:50:52.451Z,13.98
2023-05-10T21:53:23.369Z,13.96
2023-05-10T21:55:55.576Z,13.94
2023-05-10T21:58:26.161Z,13.91
2023-05-10T22:00:56.826Z,13.89
2023-05-10T22:03:27.484Z,13.87
2023-05-10T22:05:58.150Z,13.84
2023-05-10T22:08:28.950Z,13.82
2023-05-10T22:10:59.428Z,13.79
2023-05-10T22:13:29.912Z,13.76
2023-05-10T22:16:00.776Z,13.72
2023-05-10T22:18:31.353Z,13.68
2023-05-10T22:21:01.956Z,13.64
2023-05-10T22:23:32.537Z,13.62
2023-05-10T22:26:03.845Z,13.60
2023-05-10T22:28:34.342Z,13.57
2023-05-10T22:31:05.072Z,13.54
2023-05-10T22:33:35.557Z,13.53
2023-05-10T22:36:06.858Z,13.51
2023-05-10T22:38:37.639Z,13.49
2023-05-10T22:41:08.184Z,13.48
2023-05-10T22:43:38.707Z,13.47
2023-05-10T22:46:09.433Z,13.46
2023-05-10T22:48:40.072Z,13.45
2023-05-10T22:51:10.711Z,13.43
2023-05-10T22:53:41.253Z,13.41
2023-05-10T22:56:11.749Z,13.41
2023-05-10T22:58:42.317Z,13.40
2023-05-10T23:01:13.030Z,13.37
2023-05-10T23:03:43.730Z,13.34
2023-05-10T23:06:14.664Z,13.32
2023-05-10T23:08:45.654Z,13.28
2023-05-10T23:11:16.560Z,13.25
2023-05-10T23:13:47.389Z,13.22
2023-05-10T23:16:18.399Z,13.19
2023-05-10T23:18:49.262Z,13.18
2023-05-10T23:21:20.192Z,13.16
2023-05-10T23:23:51.005Z,13.13
2023-05-10T23:26:22.454Z,13.11
2023-05-10T23:28:53.269Z,13.08
2023-05-10T23:31:24.125Z,13.05
2023-05-10T23:33:55.163Z,13.03
2023-05-10T23:36:25.976Z,13.01
2023-05-10T23:38:56.693Z,13.00
2023-05-10T23:41:27.769Z,12.99
2023-05-10T23:43:58.617Z,12.97
2023-05-10T23:46:29.406Z,12.95
2023-05-10T23:49:00.206Z,12.94
2023-05-10T23:51:31.025Z,12.90
2023-05-10T23:54:02.215Z,12.88
2023-05-10T23:56:33.294Z,12.85
2023-05-10T23:59:06.068Z,12.83
